Weather History for Hereford, TX

Change the Weather History Date:

Wednesday, August 28, 2013

  Actual Average (KAMA) Record (KAMA)
Temperature  
Mean Temperature 78 °F 75 °F  
Max Temperature 92 °F 88 °F 102 °F (2011)
Min Temperature 63 °F 63 °F 52 °F (1987)
Degree Days  
Heating Degree Days 0 0  
Month to date heating degree days 0  
Since 1 June heating degree days 7  
Since 1 July heating degree days 0  
Cooling Degree Days 12 10  
Month to date cooling degree days 337  
Year to date cooling degree days 1162  
Since 1 June cooling degree days 1037  
Growing Degree Days 28 (Base 50)    
Moisture  
Dew Point 56 °F    
Average Humidity 51    
Maximum Humidity 84    
Minimum Humidity 28    
Precipitation  
Precipitation 0.00 in 0.08 in 1.65 in (1968)
Month to date precipitation 2.69  
Year to date precipitation 15.05  
Snow  
Snow 0.00 in 0.00 in 0.00 in ()
Month to date snowfall 0.0  
Since 1 June snowfall 0.0  
Since 1 July snowfall 0.0  
Snow Depth -    
Sea Level Pressure  
Sea Level Pressure 30.15 in    
Wind  
Wind Speed 9 mph (SSW)    
Max Wind Speed 16 mph    
Max Gust Speed 24 mph    
Visibility 10 miles    
Events      
T = Trace of Precipitation, MM = Missing Value Source: NWS Daily Summary

Daily Weather History Graph

Daily Weather History Graph

Search for Another Location

Airport:

Trip Planner

Search our weather history database for the weather conditions in past years. The results will help you decide how hot, cold, wet, or windy it might be!

Date:

Astronomy

Aug. 28, 2013 Rise Set
Actual Time 7:19 AM CDT 8:20 PM CDT
Civil Twilight 6:53 AM CDT 8:46 PM CDT
Nautical Twilight 6:22 AM CDT 9:17 PM CDT
Astronomical Twilight 5:50 AM CDT 9:49 PM CDT
Moon 12:34 AM CDT (8/28) 2:53 PM CDT (8/28)
Length of Visible Light 13h 53m
Length of Day
13h 01m
Waning Gibbous, 47% of the Moon is Illuminated
Aug 28
Waning Gibbous
Sep 5
New
Sep 12
First Quarter
Sep 19
Full
Sep 26
Last Quarter

Hourly Weather History & Observations

Time (CDT) Temp. Heat Index Dew Point Humidity Pressure Visibility Wind Dir Wind Speed Gust Speed Precip Events Conditions
12:15 AM 70.9 °F - 53.1 °F 53% 30.14 in 10.0 mi South 8.1 mph - N/A   Clear
12:35 AM 69.4 °F - 53.1 °F 56% 30.14 in 10.0 mi SSW 5.8 mph - N/A   Clear
12:55 AM 69.4 °F - 54.1 °F 58% 30.14 in 10.0 mi South 9.2 mph - N/A   Clear
1:15 AM 69.4 °F - 54.7 °F 59% 30.14 in 10.0 mi SSW 6.9 mph - N/A   Clear
1:35 AM 69.6 °F - 55.8 °F 61% 30.14 in 10.0 mi South 5.8 mph - N/A   Clear
1:55 AM 70.0 °F - 56.3 °F 62% 30.14 in 10.0 mi South 5.8 mph - N/A   Clear
2:15 AM 69.3 °F - 56.7 °F 64% 30.14 in 10.0 mi South 6.9 mph - N/A   Clear
2:35 AM 68.7 °F - 57.2 °F 67% 30.14 in 10.0 mi South 5.8 mph - N/A   Clear
2:55 AM 68.0 °F - 57.2 °F 68% 30.13 in 10.0 mi South 5.8 mph - N/A   Clear
3:15 AM 67.3 °F - 57.2 °F 70% 30.13 in 10.0 mi South 6.9 mph - N/A   Clear
3:35 AM 67.3 °F - 57.4 °F 70% 30.13 in 10.0 mi South 5.8 mph - N/A   Clear
3:55 AM 66.2 °F - 57.4 °F 73% 30.13 in 10.0 mi South 5.8 mph - N/A   Clear
4:15 AM 65.8 °F - 57.6 °F 75% 30.14 in 10.0 mi South 4.6 mph - N/A   Clear
4:35 AM 65.7 °F - 57.7 °F 76% 30.13 in 10.0 mi SSW 4.6 mph - N/A   Scattered Clouds
4:55 AM 66.0 °F - 57.7 °F 75% 30.13 in 10.0 mi SSW 5.8 mph - N/A   Clear
5:15 AM 65.7 °F - 57.9 °F 76% 30.14 in 10.0 mi South 6.9 mph - N/A   Clear
5:35 AM 64.6 °F - 57.6 °F 78% 30.14 in 10.0 mi South 5.8 mph - N/A   Clear
5:55 AM 64.4 °F - 57.7 °F 79% 30.14 in 10.0 mi SSW 4.6 mph - N/A   Clear
6:15 AM 64.6 °F - 57.7 °F 78% 30.14 in 10.0 mi SW 4.6 mph - N/A   Clear
6:35 AM 65.7 °F - 59.0 °F 79% 30.14 in 10.0 mi SSW 6.9 mph - N/A   Clear
6:55 AM 66.4 °F - 59.0 °F 77% 30.16 in 10.0 mi SSW 6.9 mph - N/A   Clear
7:15 AM 64.0 °F - 58.5 °F 82% 30.16 in 10.0 mi SSW 4.6 mph - N/A   Clear
7:35 AM 63.7 °F - 58.6 °F 84% 30.16 in 10.0 mi SSW 5.8 mph - N/A   Clear
7:55 AM 65.3 °F - 59.2 °F 81% 30.17 in 10.0 mi SW 6.9 mph - N/A   Clear
8:15 AM 66.6 °F - 59.5 °F 78% 30.17 in 10.0 mi SSW 5.8 mph - N/A   Clear
8:35 AM 68.2 °F - 60.3 °F 76% 30.18 in 10.0 mi SSW 11.5 mph - N/A   Clear
8:55 AM 70.7 °F - 60.6 °F 70% 30.18 in 10.0 mi SSW 10.4 mph - N/A   Clear
9:15 AM 72.5 °F - 60.6 °F 66% 30.18 in 10.0 mi SSW 13.8 mph 19.6 mph N/A   Clear
9:35 AM 74.8 °F - 57.9 °F 55% 30.19 in 10.0 mi SW 16.1 mph 21.9 mph N/A   Clear
9:55 AM 77.0 °F - 56.8 °F 50% 30.19 in 10.0 mi SW 16.1 mph 21.9 mph N/A   Clear
10:15 AM 78.4 °F - 58.3 °F 50% 30.19 in 10.0 mi SW 12.7 mph - N/A   Clear
10:35 AM 79.7 °F - 58.8 °F 49% 30.19 in 10.0 mi SSW 12.7 mph 20.7 mph N/A   Clear
10:55 AM 80.8 °F 81.2 °F 58.8 °F 47% 30.19 in 10.0 mi SSW 16.1 mph 20.7 mph N/A   Clear
11:15 AM 81.9 °F 81.9 °F 58.6 °F 45% 30.19 in 10.0 mi SW 11.5 mph 17.3 mph N/A   Clear
11:35 AM 83.1 °F 82.7 °F 57.7 °F 42% 30.18 in 10.0 mi SSW 12.7 mph 19.6 mph N/A   Clear
11:55 AM 84.9 °F 84.1 °F 57.2 °F 39% 30.18 in 10.0 mi SSW 12.7 mph 19.6 mph N/A   Clear
12:15 PM 86.0 °F 84.9 °F 57.0 °F 37% 30.18 in 10.0 mi SSW 10.4 mph 16.1 mph N/A   Clear
12:35 PM 86.4 °F 84.7 °F 54.5 °F 34% 30.18 in 10.0 mi South 12.7 mph 18.4 mph N/A   Clear
12:55 PM 87.1 °F 85.1 °F 54.1 °F 32% 30.17 in 10.0 mi WSW 10.4 mph 18.4 mph N/A   Clear
1:15 PM 86.7 °F 84.7 °F 54.0 °F 32% 30.17 in 10.0 mi SW 12.7 mph 18.4 mph N/A   Clear
1:35 PM 87.4 °F 85.5 °F 54.1 °F 32% 30.17 in 10.0 mi SW 8.1 mph 18.4 mph N/A   Clear
1:55 PM 88.7 °F 86.3 °F 53.1 °F 29% 30.16 in 10.0 mi SSW 9.2 mph 18.4 mph N/A   Clear
2:15 PM 88.2 °F - 52.9 °F 30% 30.15 in 10.0 mi SSW 8.1 mph 17.3 mph N/A   Scattered Clouds
2:35 PM 88.9 °F - 52.7 °F 29% 30.15 in 10.0 mi SW 13.8 mph 20.7 mph N/A   Scattered Clouds
2:55 PM 90.0 °F - 52.3 °F 28% 30.15 in 10.0 mi SW 15.0 mph - N/A   Scattered Clouds
3:15 PM 90.1 °F 88.1 °F 54.7 °F 30% 30.14 in 10.0 mi SW 13.8 mph 18.4 mph N/A   Scattered Clouds
3:35 PM 92.1 °F 90.0 °F 54.5 °F 28% 30.14 in 10.0 mi South 16.1 mph 23.0 mph N/A   Scattered Clouds
3:55 PM 90.7 °F 88.7 °F 55.4 °F 30% 30.14 in 10.0 mi South 15.0 mph 24.2 mph N/A   Scattered Clouds
4:15 PM 90.1 °F 87.9 °F 54.0 °F 29% 30.13 in 10.0 mi SSW 16.1 mph 23.0 mph N/A   Clear
4:35 PM 89.8 °F 87.5 °F 53.8 °F 29% 30.13 in 10.0 mi SSW 12.7 mph 18.4 mph N/A   Clear
4:55 PM 90.7 °F 88.5 °F 54.1 °F 29% 30.13 in 10.0 mi SW 13.8 mph 21.9 mph N/A   Scattered Clouds
5:15 PM 88.9 °F 86.9 °F 54.3 °F 31% 30.12 in 10.0 mi SSW 11.5 mph 19.6 mph N/A   Clear
5:35 PM 90.5 °F 88.3 °F 54.5 °F 29% 30.12 in 10.0 mi South 13.8 mph 20.7 mph N/A   Clear
5:55 PM 88.3 °F 86.1 °F 53.1 °F 30% 30.13 in 10.0 mi South 15.0 mph 18.4 mph N/A   Clear
6:15 PM 87.8 °F 85.5 °F 53.1 °F 30% 30.12 in 10.0 mi SSW 11.5 mph 17.3 mph N/A   Clear
6:35 PM 86.9 °F 84.8 °F 53.1 °F 31% 30.13 in 10.0 mi South 15.0 mph 20.7 mph N/A   Clear
6:55 PM 86.0 °F - 51.4 °F 30% 30.12 in 10.0 mi South 12.7 mph 20.7 mph N/A   Clear
7:15 PM 86.2 °F - 52.2 °F 31% 30.13 in 10.0 mi South 13.8 mph 17.3 mph N/A   Clear
7:35 PM 85.6 °F 83.8 °F 53.1 °F 33% 30.13 in 10.0 mi South 11.5 mph 16.1 mph N/A   Clear
7:55 PM 85.1 °F 83.5 °F 54.0 °F 34% 30.13 in 10.0 mi SSE 11.5 mph - N/A   Clear
8:15 PM 83.7 °F 82.3 °F 53.1 °F 35% 30.13 in 10.0 mi South 13.8 mph - N/A   Clear
8:35 PM 82.4 °F 81.6 °F 54.3 °F 38% 30.14 in 10.0 mi South 10.4 mph - N/A   Clear
8:55 PM 81.0 °F 80.7 °F 54.9 °F 41% 30.14 in 10.0 mi SSE 9.2 mph - N/A   Clear
9:15 PM 79.5 °F - 55.0 °F 43% 30.15 in 10.0 mi South 9.2 mph - N/A   Clear
9:35 PM 77.7 °F - 55.2 °F 46% 30.16 in 10.0 mi SSE 9.2 mph - N/A   Clear
9:55 PM 76.5 °F - 55.4 °F 48% 30.16 in 10.0 mi SSE 8.1 mph - N/A   Clear
10:15 PM 75.2 °F - 55.4 °F 50% 30.17 in 10.0 mi SSE 6.9 mph - N/A   Clear
10:35 PM 74.5 °F - 55.6 °F 52% 30.17 in 10.0 mi South 8.1 mph - N/A   Clear
10:55 PM 74.3 °F - 55.6 °F 52% 30.17 in 10.0 mi SSE 8.1 mph - N/A   Clear
11:15 PM 73.0 °F - 55.4 °F 54% 30.18 in 10.0 mi South 9.2 mph - N/A   Clear
11:35 PM 73.4 °F - 55.6 °F 54% 30.18 in 10.0 mi South 9.2 mph - N/A   Clear
11:55 PM 73.0 °F - 55.6 °F 54% 30.18 in 10.0 mi South 9.2 mph - N/A   Clear